TimeCST,TemperatureF,Dew PointF,Humidity,Sea Level PressureIn,VisibilityMPH,Wind Direction,Wind SpeedMPH,Gust SpeedMPH,PrecipitationIn,Events,Conditions,WindDirDegrees,DateUTC
12:13 AM,30.2,28.4,93,30.50,10.0,NNE,10.4,-,N/A,,Overcast,30,2013-11-23 06:13:00
12:53 AM,30.9,28.0,89,30.53,10.0,NNE,11.5,-,N/A,,Overcast,20,2013-11-23 06:53:00
1:53 AM,30.9,28.0,89,30.54,10.0,NNE,13.8,-,N/A,,Overcast,20,2013-11-23 07:53:00
2:53 AM,30.9,28.0,89,30.54,10.0,NNE,11.5,-,N/A,,Overcast,20,2013-11-23 08:53:00
3:53 AM,30.9,28.0,89,30.54,10.0,NE,11.5,-,N/A,,Overcast,40,2013-11-23 09:53:00
4:53 AM,30.9,28.9,92,30.55,10.0,North,9.2,-,N/A,,Overcast,10,2013-11-23 10:53:00
5:49 AM,30.2,28.4,93,30.53,10.0,NNE,9.2,-,N/A,,Mostly Cloudy,30,2013-11-23 11:49:00
5:53 AM,30.0,28.0,92,30.56,10.0,NNE,9.2,-,N/A,,Mostly Cloudy,20,2013-11-23 11:53:00
6:02 AM,30.2,28.4,93,30.53,10.0,NNE,10.4,-,N/A,,Mostly Cloudy,30,2013-11-23 12:02:00
6:37 AM,30.2,26.6,86,30.55,10.0,North,12.7,-,N/A,,Overcast,10,2013-11-23 12:37:00
6:53 AM,30.0,27.0,88,30.60,10.0,NNE,11.5,-,N/A,,Overcast,20,2013-11-23 12:53:00
7:53 AM,30.9,27.0,85,30.62,10.0,North,13.8,-,N/A,,Overcast,10,2013-11-23 13:53:00
8:53 AM,32.0,25.0,75,30.62,10.0,NNE,15.0,-,N/A,,Overcast,30,2013-11-23 14:53:00
9:53 AM,33.1,21.0,61,30.63,10.0,NNE,12.7,-,N/A,,Overcast,30,2013-11-23 15:53:00
10:53 AM,35.1,19.9,54,30.65,10.0,NNE,13.8,-,N/A,,Overcast,30,2013-11-23 16:53:00
11:53 AM,36.0,18.0,48,30.64,10.0,North,15.0,-,N/A,,Overcast,10,2013-11-23 17:53:00
12:53 PM,36.0,14.0,41,30.63,10.0,North,17.3,-,N/A,,Overcast,10,2013-11-23 18:53:00
1:53 PM,36.0,19.0,50,30.61,10.0,North,13.8,-,N/A,,Overcast,10,2013-11-23 19:53:00
2:53 PM,36.0,21.0,55,30.61,10.0,NNE,12.7,-,N/A,,Clear,20,2013-11-23 20:53:00
3:53 PM,36.0,21.0,55,30.61,10.0,NNE,18.4,-,N/A,,Clear,20,2013-11-23 21:53:00
4:53 PM,35.1,21.0,57,30.62,10.0,North,16.1,-,N/A,,Clear,10,2013-11-23 22:53:00
5:53 PM,30.9,21.0,67,30.65,10.0,North,11.5,-,N/A,,Clear,360,2013-11-23 23:53:00
6:53 PM,28.9,17.1,61,30.66,10.0,North,10.4,-,N/A,,Clear,360,2013-11-24 00:53:00
7:53 PM,27.0,14.0,58,30.67,10.0,NNE,10.4,-,N/A,,Clear,20,2013-11-24 01:53:00
8:53 PM,26.1,14.0,60,30.67,10.0,NNE,11.5,-,N/A,,Clear,20,2013-11-24 02:53:00
9:53 PM,25.0,12.0,58,30.67,10.0,NNE,11.5,-,N/A,,Clear,30,2013-11-24 03:53:00
10:53 PM,24.1,10.9,57,30.67,10.0,NNE,12.7,-,N/A,,Clear,20,2013-11-24 04:53:00
11:53 PM,23.0,12.0,63,30.66,10.0,NE,11.5,-,N/A,,Clear,40,2013-11-24 05:53:00